sensor_id;sensor_type;location;lat;lon;timestamp;pressure;altitude;pressure_sealevel;temperature;humidity
55759;BME280;41678;52.126;20.664;2022-07-18T00:00:48;101139.50;;;14.01;66.36
55759;BME280;41678;52.126;20.664;2022-07-18T00:06:08;101141.28;;;13.98;66.24
55759;BME280;41678;52.126;20.664;2022-07-18T00:11:27;101137.78;;;13.97;66.26
55759;BME280;41678;52.126;20.664;2022-07-18T00:16:49;101136.03;;;13.93;66.40
55759;BME280;41678;52.126;20.664;2022-07-18T00:22:08;101136.09;;;13.90;66.07
55759;BME280;41678;52.126;20.664;2022-07-18T00:27:28;101132.63;;;13.83;66.73
55759;BME280;41678;52.126;20.664;2022-07-18T00:32:47;101133.66;;;13.71;67.01
55759;BME280;41678;52.126;20.664;2022-07-18T00:38:07;101129.31;;;13.64;66.96
55759;BME280;41678;52.126;20.664;2022-07-18T00:43:27;101124.09;;;13.58;66.88
55759;BME280;41678;52.126;20.664;2022-07-18T00:48:47;101125.94;;;13.53;67.08
55759;BME280;41678;52.126;20.664;2022-07-18T00:54:07;101129.44;;;13.53;66.76
55759;BME280;41678;52.126;20.664;2022-07-18T00:59:27;101132.13;;;13.50;67.03
55759;BME280;41678;52.126;20.664;2022-07-18T01:05:08;101124.22;;;13.42;66.88
55759;BME280;41678;52.126;20.664;2022-07-18T01:10:28;101131.28;;;13.42;66.85
55759;BME280;41678;52.126;20.664;2022-07-18T01:15:47;101138.34;;;13.44;66.64
55759;BME280;41678;52.126;20.664;2022-07-18T01:21:07;101150.72;;;13.39;66.86
55759;BME280;41678;52.126;20.664;2022-07-18T01:26:27;101149.00;;;13.35;67.14
55759;BME280;41678;52.126;20.664;2022-07-18T01:31:47;101141.06;;;13.32;67.04
55759;BME280;41678;52.126;20.664;2022-07-18T01:37:08;101143.78;;;13.27;67.14
55759;BME280;41678;52.126;20.664;2022-07-18T01:42:28;101135.84;;;13.24;66.93
55759;BME280;41678;52.126;20.664;2022-07-18T01:47:48;101142.06;;;13.22;67.30
55759;BME280;41678;52.126;20.664;2022-07-18T01:53:08;101136.81;;;13.17;67.85
55759;BME280;41678;52.126;20.664;2022-07-18T01:58:28;101141.19;;;13.16;67.35
55759;BME280;41678;52.126;20.664;2022-07-18T02:03:48;101147.41;;;13.14;67.40
55759;BME280;41678;52.126;20.664;2022-07-18T02:09:10;101150.06;;;13.12;67.43
55759;BME280;41678;52.126;20.664;2022-07-18T02:14:29;101150.06;;;13.12;67.07
55759;BME280;41678;52.126;20.664;2022-07-18T02:19:49;101156.28;;;13.08;67.17
55759;BME280;41678;52.126;20.664;2022-07-18T02:25:09;101155.38;;;13.08;67.39
55759;BME280;41678;52.126;20.664;2022-07-18T02:30:30;101159.84;;;13.02;67.26
55759;BME280;41678;52.126;20.664;2022-07-18T02:35:50;101153.72;;;12.96;67.24
55759;BME280;41678;52.126;20.664;2022-07-18T02:41:10;101156.34;;;12.94;67.60
55759;BME280;41678;52.126;20.664;2022-07-18T02:46:29;101151.97;;;12.95;67.48
55759;BME280;41678;52.126;20.664;2022-07-18T02:51:49;101155.53;;;12.89;67.59
55759;BME280;41678;52.126;20.664;2022-07-18T02:57:08;101152.06;;;12.84;67.38
55759;BME280;41678;52.126;20.664;2022-07-18T03:02:28;101154.69;;;12.81;68.09
55759;BME280;41678;52.126;20.664;2022-07-18T03:07:48;101159.13;;;12.75;68.37
55759;BME280;41678;52.126;20.664;2022-07-18T03:13:07;101159.09;;;12.79;67.78
55759;BME280;41678;52.126;20.664;2022-07-18T03:18:27;101167.03;;;12.80;67.89
55759;BME280;41678;52.126;20.664;2022-07-18T03:23:47;101167.06;;;12.77;67.94
55759;BME280;41678;52.126;20.664;2022-07-18T03:29:07;101160.00;;;12.79;67.93
55759;BME280;41678;52.126;20.664;2022-07-18T03:34:27;101167.91;;;12.82;67.94
55759;BME280;41678;52.126;20.664;2022-07-18T03:39:46;101170.53;;;12.81;68.29
55759;BME280;41678;52.126;20.664;2022-07-18T03:45:07;101176.63;;;12.95;68.46
55759;BME280;41678;52.126;20.664;2022-07-18T03:50:27;101180.13;;;12.99;68.22
55759;BME280;41678;52.126;20.664;2022-07-18T03:55:47;101173.06;;;13.02;68.27
55759;BME280;41678;52.126;20.664;2022-07-18T04:01:07;101178.31;;;13.07;68.46
55759;BME280;41678;52.126;20.664;2022-07-18T04:06:27;101186.25;;;13.07;68.58
55759;BME280;41678;52.126;20.664;2022-07-18T04:11:47;101184.47;;;13.09;68.64
55759;BME280;41678;52.126;20.664;2022-07-18T04:17:07;101180.06;;;13.08;68.78
55759;BME280;41678;52.126;20.664;2022-07-18T04:22:26;101180.91;;;13.13;68.48
55759;BME280;41678;52.126;20.664;2022-07-18T04:27:47;101182.66;;;13.14;68.64
55759;BME280;41678;52.126;20.664;2022-07-18T04:33:08;101186.16;;;13.16;69.01
55759;BME280;41678;52.126;20.664;2022-07-18T04:38:28;101173.75;;;13.25;68.78
55759;BME280;41678;52.126;20.664;2022-07-18T04:43:53;101168.41;;;13.31;69.18
55759;BME280;41678;52.126;20.664;2022-07-18T04:49:13;101182.50;;;13.36;68.84
55759;BME280;41678;52.126;20.664;2022-07-18T04:54:32;101178.03;;;13.41;69.15
55759;BME280;41678;52.126;20.664;2022-07-18T04:59:52;101176.22;;;13.48;69.41
55759;BME280;41678;52.126;20.664;2022-07-18T05:05:13;101175.25;;;13.57;69.19
55759;BME280;41678;52.126;20.664;2022-07-18T05:10:33;101181.34;;;13.68;69.16
55759;BME280;41678;52.126;20.664;2022-07-18T05:15:53;101183.88;;;13.78;69.85
55759;BME280;41678;52.126;20.664;2022-07-18T05:21:12;101180.25;;;13.88;69.70
55759;BME280;41678;52.126;20.664;2022-07-18T05:26:32;101177.41;;;14.02;69.89
55759;BME280;41678;52.126;20.664;2022-07-18T05:31:52;101177.38;;;14.08;69.66
55759;BME280;41678;52.126;20.664;2022-07-18T05:37:12;101182.53;;;14.17;69.68
55759;BME280;41678;52.126;20.664;2022-07-18T05:42:32;101178.03;;;14.24;69.66
55759;BME280;41678;52.126;20.664;2022-07-18T05:47:53;101178.78;;;14.37;69.97
55759;BME280;41678;52.126;20.664;2022-07-18T05:53:13;101180.38;;;14.48;70.03
55759;BME280;41678;52.126;20.664;2022-07-18T05:58:33;101179.31;;;14.63;70.28
55759;BME280;41678;52.126;20.664;2022-07-18T06:03:52;101174.66;;;14.80;70.29
55759;BME280;41678;52.126;20.664;2022-07-18T06:09:12;101176.25;;;14.92;70.26
55759;BME280;41678;52.126;20.664;2022-07-18T06:14:32;101177.75;;;15.09;70.52
55759;BME280;41678;52.126;20.664;2022-07-18T06:19:52;101187.38;;;15.16;70.29
55759;BME280;41678;52.126;20.664;2022-07-18T06:25:12;101179.19;;;15.30;70.57
55759;BME280;41678;52.126;20.664;2022-07-18T06:30:31;101177.16;;;15.46;70.73
55759;BME280;41678;52.126;20.664;2022-07-18T06:35:52;101174.19;;;15.63;70.68
55759;BME280;41678;52.126;20.664;2022-07-18T06:41:12;101180.13;;;15.78;70.75
55759;BME280;41678;52.126;20.664;2022-07-18T06:46:32;101175.47;;;15.92;70.92
55759;BME280;41678;52.126;20.664;2022-07-18T06:51:52;101176.09;;;16.04;71.16
55759;BME280;41678;52.126;20.664;2022-07-18T06:57:12;101175.88;;;16.14;70.87
55759;BME280;41678;52.126;20.664;2022-07-18T07:02:32;101179.16;;;16.27;71.01
55759;BME280;41678;52.126;20.664;2022-07-18T07:07:52;101183.34;;;16.39;71.38
55759;BME280;41678;52.126;20.664;2022-07-18T07:13:12;101176.03;;;16.49;70.88
55759;BME280;41678;52.126;20.664;2022-07-18T07:18:32;101174.69;;;16.70;71.08
55759;BME280;41678;52.126;20.664;2022-07-18T07:23:52;101171.56;;;16.91;71.22
55759;BME280;41678;52.126;20.664;2022-07-18T07:29:12;101162.22;;;17.12;71.45
55759;BME280;41678;52.126;20.664;2022-07-18T07:34:31;101165.28;;;17.31;71.08
55759;BME280;41678;52.126;20.664;2022-07-18T07:39:51;101172.81;;;17.48;70.99
55759;BME280;41678;52.126;20.664;2022-07-18T07:45:11;101168.13;;;17.58;71.14
55759;BME280;41678;52.126;20.664;2022-07-18T07:50:32;101171.47;;;17.66;71.01
55759;BME280;41678;52.126;20.664;2022-07-18T07:55:52;101172.09;;;17.76;71.02
55759;BME280;41678;52.126;20.664;2022-07-18T08:01:12;101163.78;;;17.87;70.90
55759;BME280;41678;52.126;20.664;2022-07-18T08:06:31;101168.59;;;18.07;70.99
55759;BME280;41678;52.126;20.664;2022-07-18T08:11:51;101167.44;;;18.16;70.38
55759;BME280;41678;52.126;20.664;2022-07-18T08:17:11;101167.91;;;18.31;70.73
55759;BME280;41678;52.126;20.664;2022-07-18T08:22:31;101179.84;;;18.47;70.11
55759;BME280;41678;52.126;20.664;2022-07-18T08:27:51;101172.19;;;18.65;70.18
55759;BME280;41678;52.126;20.664;2022-07-18T08:33:11;101170.16;;;18.75;69.92
55759;BME280;41678;52.126;20.664;2022-07-18T08:38:30;101171.44;;;18.90;69.71
55759;BME280;41678;52.126;20.664;2022-07-18T08:43:51;101174.34;;;19.10;69.25
55759;BME280;41678;52.126;20.664;2022-07-18T08:49:11;101162.28;;;19.25;69.28
55759;BME280;41678;52.126;20.664;2022-07-18T08:54:31;101168.00;;;19.42;69.01
55759;BME280;41678;52.126;20.664;2022-07-18T08:59:50;101163.00;;;19.56;68.99
55759;BME280;41678;52.126;20.664;2022-07-18T09:05:19;101161.56;;;19.73;68.67
55759;BME280;41678;52.126;20.664;2022-07-18T09:10:58;101155.69;;;19.87;68.22
55759;BME280;41678;52.126;20.664;2022-07-18T09:16:20;101161.41;;;20.03;68.14
55759;BME280;41678;52.126;20.664;2022-07-18T09:21:40;101147.78;;;20.09;68.06
55759;BME280;41678;52.126;20.664;2022-07-18T09:26:59;101152.69;;;20.21;67.69
55759;BME280;41678;52.126;20.664;2022-07-18T09:32:22;101160.31;;;20.31;67.27
55759;BME280;41678;52.126;20.664;2022-07-18T09:38:07;101152.84;;;20.41;67.43
55759;BME280;41678;52.126;20.664;2022-07-18T09:43:27;101146.34;;;20.46;67.38
55759;BME280;41678;52.126;20.664;2022-07-18T09:48:47;101137.97;;;20.56;67.10
55759;BME280;41678;52.126;20.664;2022-07-18T09:54:07;101141.00;;;20.69;67.42
55759;BME280;41678;52.126;20.664;2022-07-18T09:59:27;101140.72;;;20.76;67.14
55759;BME280;41678;52.126;20.664;2022-07-18T10:04:47;101146.41;;;20.91;66.80
55759;BME280;41678;52.126;20.664;2022-07-18T10:10:07;101138.97;;;20.98;66.60
55759;BME280;41678;52.126;20.664;2022-07-18T10:15:30;101135.03;;;21.06;66.47
55759;BME280;41678;52.126;20.664;2022-07-18T10:20:59;101142.69;;;21.16;66.61
55759;BME280;41678;52.126;20.664;2022-07-18T10:26:21;101143.19;;;21.26;65.79
55759;BME280;41678;52.126;20.664;2022-07-18T10:32:00;101140.97;;;21.35;66.01
55759;BME280;41678;52.126;20.664;2022-07-18T10:37:24;101137.94;;;21.43;65.91
55759;BME280;41678;52.126;20.664;2022-07-18T10:42:44;101137.84;;;21.46;65.65
55759;BME280;41678;52.126;20.664;2022-07-18T10:59:22;101136.44;;;21.58;65.42
55759;BME280;41678;52.126;20.664;2022-07-18T11:04:43;101138.03;;;21.62;64.88
55759;BME280;41678;52.126;20.664;2022-07-18T11:10:03;101125.56;;;21.61;65.32
55759;BME280;41678;52.126;20.664;2022-07-18T11:15:23;101130.66;;;21.68;64.87
55759;BME280;41678;52.126;20.664;2022-07-18T11:20:43;101120.88;;;21.67;64.62
55759;BME280;41678;52.126;20.664;2022-07-18T11:26:02;101139.53;;;21.70;64.11
55759;BME280;41678;52.126;20.664;2022-07-18T11:31:22;101120.88;;;21.67;64.18
55759;BME280;41678;52.126;20.664;2022-07-18T11:36:44;101120.78;;;21.70;64.72
55759;BME280;41678;52.126;20.664;2022-07-18T11:42:04;101109.13;;;21.71;64.14
55759;BME280;41678;52.126;20.664;2022-07-18T11:47:24;101117.66;;;21.79;63.98
55759;BME280;41678;52.126;20.664;2022-07-18T11:52:45;101108.69;;;21.80;64.36
55759;BME280;41678;52.126;20.664;2022-07-18T11:58:09;101101.31;;;21.85;63.55
55759;BME280;41678;52.126;20.664;2022-07-18T12:03:29;101092.53;;;21.82;64.10
55759;BME280;41678;52.126;20.664;2022-07-18T12:08:54;101086.97;;;21.86;64.26
55759;BME280;41678;52.126;20.664;2022-07-18T12:14:19;101087.66;;;21.90;63.96
55759;BME280;41678;52.126;20.664;2022-07-18T12:19:39;101078.56;;;21.94;63.39
55759;BME280;41678;52.126;20.664;2022-07-18T12:24:59;101081.91;;;21.99;63.28
55759;BME280;41678;52.126;20.664;2022-07-18T12:30:20;101079.94;;;22.03;62.80
55759;BME280;41678;52.126;20.664;2022-07-18T12:35:39;101067.59;;;21.99;63.53
55759;BME280;41678;52.126;20.664;2022-07-18T12:41:00;101071.59;;;22.09;63.07
55759;BME280;41678;52.126;20.664;2022-07-18T12:46:21;101071.59;;;22.09;62.78
55759;BME280;41678;52.126;20.664;2022-07-18T12:51:41;101065.13;;;22.13;62.54
55759;BME280;41678;52.126;20.664;2022-07-18T12:57:00;101058.91;;;22.13;61.73
55759;BME280;41678;52.126;20.664;2022-07-18T13:02:20;101057.19;;;22.12;61.43
55759;BME280;41678;52.126;20.664;2022-07-18T13:07:40;101055.44;;;22.11;61.40
55759;BME280;41678;52.126;20.664;2022-07-18T13:13:05;101057.19;;;22.12;61.18
55759;BME280;41678;52.126;20.664;2022-07-18T13:18:25;101057.25;;;22.10;60.70
55759;BME280;41678;52.126;20.664;2022-07-18T13:23:45;101052.03;;;22.07;60.55
55759;BME280;41678;52.126;20.664;2022-07-18T13:29:05;101051.19;;;22.06;60.57
55759;BME280;41678;52.126;20.664;2022-07-18T13:34:25;101050.09;;;22.11;60.37
55759;BME280;41678;52.126;20.664;2022-07-18T13:39:45;101050.00;;;22.12;59.63
55759;BME280;41678;52.126;20.664;2022-07-18T13:45:06;101041.88;;;22.14;59.27
55759;BME280;41678;52.126;20.664;2022-07-18T13:50:26;101042.78;;;22.14;59.56
55759;BME280;41678;52.126;20.664;2022-07-18T13:55:46;101040.72;;;22.19;59.87
55759;BME280;41678;52.126;20.664;2022-07-18T14:01:05;101037.03;;;22.22;59.75
55759;BME280;41678;52.126;20.664;2022-07-18T14:06:25;101038.63;;;22.26;59.45
55759;BME280;41678;52.126;20.664;2022-07-18T14:11:45;101028.84;;;22.25;59.86
55759;BME280;41678;52.126;20.664;2022-07-18T14:17:05;101023.38;;;22.27;59.46
55759;BME280;41678;52.126;20.664;2022-07-18T14:22:25;101022.31;;;22.31;59.56
55759;BME280;41678;52.126;20.664;2022-07-18T14:27:45;101028.34;;;22.34;59.04
55759;BME280;41678;52.126;20.664;2022-07-18T14:33:05;101014.94;;;22.34;58.96
55759;BME280;41678;52.126;20.664;2022-07-18T14:38:25;101014.88;;;22.36;59.82
55759;BME280;41678;52.126;20.664;2022-07-18T14:43:45;101006.69;;;22.39;58.58
55759;BME280;41678;52.126;20.664;2022-07-18T14:49:05;101004.72;;;22.43;59.32
55759;BME280;41678;52.126;20.664;2022-07-18T14:54:24;101000.13;;;22.45;58.82
55759;BME280;41678;52.126;20.664;2022-07-18T14:59:44;101007.31;;;22.44;59.31
55759;BME280;41678;52.126;20.664;2022-07-18T15:05:04;101000.06;;;22.46;59.28
55759;BME280;41678;52.126;20.664;2022-07-18T15:10:24;100995.31;;;22.53;58.66
55759;BME280;41678;52.126;20.664;2022-07-18T15:15:44;101001.47;;;22.55;58.88
55759;BME280;41678;52.126;20.664;2022-07-18T15:21:04;100992.53;;;22.55;58.89
55759;BME280;41678;52.126;20.664;2022-07-18T15:26:24;100997.88;;;22.55;58.91
55759;BME280;41678;52.126;20.664;2022-07-18T15:31:44;100997.81;;;22.56;59.13
55759;BME280;41678;52.126;20.664;2022-07-18T15:37:04;100996.94;;;22.56;59.43
55759;BME280;41678;52.126;20.664;2022-07-18T15:42:24;100989.69;;;22.58;59.32
55759;BME280;41678;52.126;20.664;2022-07-18T15:47:44;100988.66;;;22.60;58.72
55759;BME280;41678;52.126;20.664;2022-07-18T15:53:04;100985.75;;;22.65;57.43
55759;BME280;41678;52.126;20.664;2022-07-18T15:58:23;100986.69;;;22.64;58.21
55759;BME280;41678;52.126;20.664;2022-07-18T16:03:44;100974.28;;;22.61;58.17
55759;BME280;41678;52.126;20.664;2022-07-18T16:09:04;100975.25;;;22.60;58.09
55759;BME280;41678;52.126;20.664;2022-07-18T16:14:24;100968.94;;;22.61;58.44
55759;BME280;41678;52.126;20.664;2022-07-18T16:19:43;100967.19;;;22.60;58.50
55759;BME280;41678;52.126;20.664;2022-07-18T16:25:03;100963.56;;;22.61;59.25
55759;BME280;41678;52.126;20.664;2022-07-18T16:30:23;100961.09;;;22.57;59.55
55759;BME280;41678;52.126;20.664;2022-07-18T16:35:43;100963.09;;;22.53;59.31
55759;BME280;41678;52.126;20.664;2022-07-18T16:41:03;100956.84;;;22.53;59.72
55759;BME280;41678;52.126;20.664;2022-07-18T16:46:23;100966.75;;;22.52;59.28
55759;BME280;41678;52.126;20.664;2022-07-18T16:51:43;100962.50;;;22.46;59.64
55759;BME280;41678;52.126;20.664;2022-07-18T16:57:03;100957.28;;;22.43;60.06
55759;BME280;41678;52.126;20.664;2022-07-18T17:02:22;100953.81;;;22.41;60.07
55759;BME280;41678;52.126;20.664;2022-07-18T17:07:42;100962.66;;;22.43;60.05
55759;BME280;41678;52.126;20.664;2022-07-18T17:13:02;100963.84;;;22.38;60.17
55759;BME280;41678;52.126;20.664;2022-07-18T17:18:22;100954.13;;;22.35;60.11
55759;BME280;41678;52.126;20.664;2022-07-18T17:23:44;100959.72;;;22.30;60.44
55759;BME280;41678;52.126;20.664;2022-07-18T17:29:03;100963.41;;;22.28;60.47
55759;BME280;41678;52.126;20.664;2022-07-18T17:34:23;100954.03;;;22.19;60.67
55759;BME280;41678;52.126;20.664;2022-07-18T17:39:43;100955.19;;;22.13;60.94
55759;BME280;41678;52.126;20.664;2022-07-18T17:45:04;100959.94;;;22.08;61.07
55759;BME280;41678;52.126;20.664;2022-07-18T17:50:24;100947.78;;;22.01;61.25
55759;BME280;41678;52.126;20.664;2022-07-18T17:55:44;100950.75;;;21.94;61.69
55759;BME280;41678;52.126;20.664;2022-07-18T18:01:04;100945.84;;;21.85;61.31
55759;BME280;41678;52.126;20.664;2022-07-18T18:06:24;100945.19;;;21.80;61.42
55759;BME280;41678;52.126;20.664;2022-07-18T18:11:44;100959.84;;;21.73;61.55
55759;BME280;41678;52.126;20.664;2022-07-18T18:17:03;100954.88;;;21.63;61.37
55759;BME280;41678;52.126;20.664;2022-07-18T18:22:23;100957.06;;;21.55;61.92
55759;BME280;41678;52.126;20.664;2022-07-18T18:27:46;100952.19;;;21.44;61.88
55759;BME280;41678;52.126;20.664;2022-07-18T18:33:06;100941.97;;;21.33;61.76
55759;BME280;41678;52.126;20.664;2022-07-18T18:38:26;100940.81;;;21.20;62.12
55759;BME280;41678;52.126;20.664;2022-07-18T18:43:45;100935.09;;;21.08;62.17
55759;BME280;41678;52.126;20.664;2022-07-18T18:49:05;100945.31;;;20.99;62.39
55759;BME280;41678;52.126;20.664;2022-07-18T18:54:25;100945.00;;;20.86;62.54
55759;BME280;41678;52.126;20.664;2022-07-18T18:59:45;100944.50;;;20.76;62.41
55759;BME280;41678;52.126;20.664;2022-07-18T19:05:05;100944.19;;;20.63;62.55
55759;BME280;41678;52.126;20.664;2022-07-18T19:10:25;100949.00;;;20.55;62.70
55759;BME280;41678;52.126;20.664;2022-07-18T19:15:45;100943.22;;;20.43;62.70
55759;BME280;41678;52.126;20.664;2022-07-18T19:21:05;100941.81;;;20.34;62.98
55759;BME280;41678;52.126;20.664;2022-07-18T19:26:25;100949.22;;;20.28;63.04
55759;BME280;41678;52.126;20.664;2022-07-18T19:31:45;100953.16;;;20.19;63.17
55759;BME280;41678;52.126;20.664;2022-07-18T19:37:04;100947.31;;;20.09;63.07
55759;BME280;41678;52.126;20.664;2022-07-18T19:42:24;100936.06;;;20.01;63.18
55759;BME280;41678;52.126;20.664;2022-07-18T19:47:44;100927.50;;;19.92;63.70
55759;BME280;41678;52.126;20.664;2022-07-18T19:53:05;100924.13;;;19.87;63.59
55759;BME280;41678;52.126;20.664;2022-07-18T19:58:26;100913.66;;;19.81;63.42
55759;BME280;41678;52.126;20.664;2022-07-18T20:03:45;100915.69;;;19.74;63.46
55759;BME280;41678;52.126;20.664;2022-07-18T20:09:05;100913.28;;;19.68;63.54
55759;BME280;41678;52.126;20.664;2022-07-18T20:14:26;100911.69;;;19.64;63.60
55759;BME280;41678;52.126;20.664;2022-07-18T20:19:46;100908.44;;;19.56;63.64
55759;BME280;41678;52.126;20.664;2022-07-18T20:25:06;100906.81;;;19.51;63.66
55759;BME280;41678;52.126;20.664;2022-07-18T20:30:26;100916.78;;;19.46;63.87
55759;BME280;41678;52.126;20.664;2022-07-18T20:35:46;100917.81;;;19.44;63.74
55759;BME280;41678;52.126;20.664;2022-07-18T20:41:06;100918.94;;;19.36;63.82
55759;BME280;41678;52.126;20.664;2022-07-18T20:46:28;100925.34;;;19.32;63.93
55759;BME280;41678;52.126;20.664;2022-07-18T20:51:47;100909.50;;;19.28;63.92
55759;BME280;41678;52.126;20.664;2022-07-18T20:57:07;100911.34;;;19.25;64.11
55759;BME280;41678;52.126;20.664;2022-07-18T21:02:28;100914.97;;;19.24;63.86
55759;BME280;41678;52.126;20.664;2022-07-18T21:07:48;100914.19;;;19.21;64.19
55759;BME280;41678;52.126;20.664;2022-07-18T21:13:07;100916.06;;;19.19;64.15
55759;BME280;41678;52.126;20.664;2022-07-18T21:18:27;100908.28;;;19.13;64.22
55759;BME280;41678;52.126;20.664;2022-07-18T21:23:47;100900.38;;;19.09;64.10
55759;BME280;41678;52.126;20.664;2022-07-18T21:29:07;100907.56;;;19.07;64.17
55759;BME280;41678;52.126;20.664;2022-07-18T21:34:26;100909.44;;;19.05;64.29
55759;BME280;41678;52.126;20.664;2022-07-18T21:39:46;100916.63;;;19.03;64.13
55759;BME280;41678;52.126;20.664;2022-07-18T21:45:06;100917.59;;;19.01;64.48
55759;BME280;41678;52.126;20.664;2022-07-18T21:50:26;100905.28;;;18.96;64.35
55759;BME280;41678;52.126;20.664;2022-07-18T21:55:46;100904.50;;;18.93;64.62
55759;BME280;41678;52.126;20.664;2022-07-18T22:01:06;100898.31;;;18.92;64.41
55759;BME280;41678;52.126;20.664;2022-07-18T22:06:26;100905.50;;;18.90;64.38
55759;BME280;41678;52.126;20.664;2022-07-18T22:11:46;100911.81;;;18.88;64.61
55759;BME280;41678;52.126;20.664;2022-07-18T22:17:06;100910.19;;;18.83;64.79
55759;BME280;41678;52.126;20.664;2022-07-18T22:22:26;100911.94;;;18.85;64.84
55759;BME280;41678;52.126;20.664;2022-07-18T22:27:46;100900.50;;;18.81;64.66
55759;BME280;41678;52.126;20.664;2022-07-18T22:33:05;100890.81;;;18.78;64.61
55759;BME280;41678;52.126;20.664;2022-07-18T22:38:25;100899.72;;;18.77;64.88
55759;BME280;41678;52.126;20.664;2022-07-18T22:43:45;100883.84;;;18.74;64.81
55759;BME280;41678;52.126;20.664;2022-07-18T22:49:04;100890.09;;;18.73;64.53
55759;BME280;41678;52.126;20.664;2022-07-18T22:54:27;100880.38;;;18.72;64.80
55759;BME280;41678;52.126;20.664;2022-07-18T22:59:47;100886.69;;;18.69;64.58
55759;BME280;41678;52.126;20.664;2022-07-18T23:05:07;100893.88;;;18.67;64.69
55759;BME280;41678;52.126;20.664;2022-07-18T23:10:47;100888.66;;;18.64;64.80
55759;BME280;41678;52.126;20.664;2022-07-18T23:16:07;100884.28;;;18.62;64.90
55759;BME280;41678;52.126;20.664;2022-07-18T23:21:26;100887.88;;;18.61;64.81
55759;BME280;41678;52.126;20.664;2022-07-18T23:26:46;100889.84;;;18.55;64.69
55759;BME280;41678;52.126;20.664;2022-07-18T23:32:06;100890.78;;;18.54;64.83
55759;BME280;41678;52.126;20.664;2022-07-18T23:37:26;100886.47;;;18.50;64.90
55759;BME280;41678;52.126;20.664;2022-07-18T23:42:46;100887.22;;;18.54;64.71
55759;BME280;41678;52.126;20.664;2022-07-18T23:48:06;100891.81;;;18.50;64.95
55759;BME280;41678;52.126;20.664;2022-07-18T23:53:25;100890.94;;;18.50;65.03
55759;BME280;41678;52.126;20.664;2022-07-18T23:58:45;100883.91;;;18.47;64.98
